createdAt,value
2023-02-14T00:01:10.706Z,62.79
2023-02-14T00:06:14.248Z,63.38
2023-02-14T00:11:15.699Z,61.79
2023-02-14T00:16:17.207Z,62.03
2023-02-14T00:21:18.749Z,62.08
2023-02-14T00:26:20.336Z,62.13
2023-02-14T00:31:22.716Z,61.28
2023-02-14T00:36:24.359Z,61.59
2023-02-14T00:41:25.894Z,63.42
2023-02-14T00:46:27.958Z,63.55
2023-02-14T00:51:30.550Z,64.04
2023-02-14T00:56:32.396Z,63.75
2023-02-14T01:01:34.018Z,63.24
2023-02-14T01:06:37.826Z,63.13
2023-02-14T01:11:39.407Z,62.61
2023-02-14T01:16:41.025Z,61.66
2023-02-14T01:21:42.566Z,62.40
2023-02-14T01:26:44.086Z,62.33
2023-02-14T01:31:45.624Z,62.91
2023-02-14T01:36:47.086Z,62.73
2023-02-14T01:41:48.861Z,61.81
2023-02-14T01:46:51.071Z,61.49
2023-02-14T01:51:57.177Z,61.69
2023-02-14T01:57:02.355Z,62.25
2023-02-14T02:02:05.295Z,61.99
2023-02-14T02:07:11.646Z,62.33
2023-02-14T02:12:13.398Z,62.43
2023-02-14T02:17:22.432Z,62.55
2023-02-14T02:22:41.930Z,62.13
2023-02-14T02:28:20.707Z,62.34
2023-02-14T02:33:42.943Z,63.01
2023-02-14T02:39:12.008Z,62.44
2023-02-14T02:44:44.069Z,63.29
2023-02-14T02:50:13.406Z,62.73
2023-02-14T02:55:56.757Z,62.07
2023-02-14T03:01:06.985Z,62.26
2023-02-14T03:06:08.540Z,62.37
2023-02-14T03:11:12.335Z,63.24
2023-02-14T03:16:35.861Z,63.00
2023-02-14T03:22:00.529Z,62.61
2023-02-14T03:27:22.025Z,61.75
2023-02-14T03:32:45.479Z,61.63
2023-02-14T03:37:57.253Z,62.13
2023-02-14T03:43:06.549Z,61.50
2023-02-14T03:48:12.905Z,62.56
2023-02-14T03:53:20.332Z,62.28
2023-02-14T03:58:30.871Z,61.98
2023-02-14T04:03:34.821Z,61.24
2023-02-14T04:08:36.283Z,61.06
2023-02-14T04:13:38.549Z,61.06
2023-02-14T04:18:39.991Z,60.74
2023-02-14T04:23:41.622Z,60.54
2023-02-14T04:28:43.064Z,59.75
2023-02-14T04:33:44.578Z,60.06
2023-02-14T04:38:46.023Z,59.83
2023-02-14T04:43:47.504Z,60.20
2023-02-14T04:48:49.058Z,59.99
2023-02-14T04:53:50.582Z,59.58
2023-02-14T04:58:52.041Z,59.73
2023-02-14T05:03:53.508Z,60.33
2023-02-14T05:08:55.907Z,60.88
2023-02-14T05:13:57.448Z,60.74
2023-02-14T05:18:58.901Z,60.33
2023-02-14T05:24:01.139Z,59.87
2023-02-14T05:29:02.664Z,60.13
2023-02-14T05:34:04.134Z,60.08
2023-02-14T05:39:05.750Z,60.09
2023-02-14T05:44:07.452Z,59.29
2023-02-14T05:49:08.942Z,60.00
2023-02-14T05:54:11.135Z,59.57
2023-02-14T05:59:12.723Z,60.04
2023-02-14T06:04:14.250Z,60.37
2023-02-14T06:09:15.909Z,60.26
2023-02-14T06:14:17.556Z,60.90
2023-02-14T06:19:19.136Z,60.92
2023-02-14T06:24:20.632Z,59.92
2023-02-14T06:29:22.162Z,60.04
2023-02-14T06:34:23.624Z,60.25
2023-02-14T06:39:25.080Z,60.21
2023-02-14T06:44:26.650Z,59.66
2023-02-14T06:49:28.161Z,59.41
2023-02-14T06:54:29.706Z,59.78
2023-02-14T06:59:31.219Z,60.25
2023-02-14T07:04:32.755Z,60.32
2023-02-14T07:09:34.254Z,59.88
2023-02-14T07:14:35.805Z,60.66
2023-02-14T07:19:37.260Z,60.51
2023-02-14T07:24:38.711Z,60.24
2023-02-14T07:29:40.263Z,60.84
2023-02-14T07:34:41.780Z,60.71
2023-02-14T07:39:44.344Z,60.62
2023-02-14T07:44:46.890Z,60.88
2023-02-14T07:49:48.311Z,61.01
2023-02-14T07:54:49.850Z,62.05
2023-02-14T07:59:51.366Z,61.79
2023-02-14T08:04:52.962Z,61.03
2023-02-14T08:09:54.522Z,61.36
2023-02-14T08:14:56.022Z,60.52
2023-02-14T08:19:57.753Z,60.46
2023-02-14T08:24:59.201Z,60.53
2023-02-14T08:30:00.794Z,61.03
2023-02-14T08:35:02.356Z,61.03
2023-02-14T08:40:04.186Z,60.64
2023-02-14T08:45:05.884Z,60.40
2023-02-14T08:50:13.226Z,59.72
2023-02-14T08:55:14.806Z,59.14
2023-02-14T09:00:17.102Z,59.80
2023-02-14T09:05:19.590Z,59.32
2023-02-14T09:10:21.065Z,58.58
2023-02-14T09:15:22.593Z,59.85
2023-02-14T09:20:24.206Z,59.21
2023-02-14T09:25:25.691Z,59.30
2023-02-14T09:30:27.414Z,58.61
2023-02-14T09:35:28.970Z,58.87
2023-02-14T09:40:32.432Z,59.32
2023-02-14T09:45:34.762Z,60.08
2023-02-14T09:50:48.455Z,58.49
2023-02-14T09:56:14.518Z,58.94
2023-02-14T10:01:23.549Z,59.07
2023-02-14T10:06:50.381Z,59.13
2023-02-14T10:11:52.991Z,59.32
2023-02-14T10:17:05.884Z,59.18
2023-02-14T10:22:13.827Z,58.19
2023-02-14T10:27:32.758Z,59.05
2023-02-14T10:32:49.910Z,58.26
2023-02-14T10:38:15.622Z,59.13
2023-02-14T10:43:37.065Z,58.25
2023-02-14T10:48:57.096Z,58.01
2023-02-14T10:54:18.511Z,58.04
2023-02-14T10:59:35.450Z,58.22
2023-02-14T11:04:37.826Z,57.82
2023-02-14T11:09:39.354Z,57.77
2023-02-14T11:14:41.028Z,58.33
2023-02-14T11:20:00.678Z,58.09
2023-02-14T11:25:17.688Z,57.86
2023-02-14T11:30:34.741Z,58.19
2023-02-14T11:35:37.823Z,59.18
2023-02-14T11:40:40.267Z,59.59
2023-02-14T11:45:44.008Z,60.33
2023-02-14T11:51:11.025Z,59.85
2023-02-14T11:56:14.289Z,59.08
2023-02-14T12:01:25.888Z,59.38
2023-02-14T12:06:33.652Z,60.03
2023-02-14T12:11:35.192Z,59.80
2023-02-14T12:16:47.480Z,59.00
2023-02-14T12:21:58.995Z,58.73
2023-02-14T12:27:16.192Z,58.90
2023-02-14T12:32:20.968Z,58.53
2023-02-14T12:37:50.837Z,58.43
2023-02-14T12:43:10.607Z,59.32
2023-02-14T12:48:49.408Z,58.21
2023-02-14T12:54:20.426Z,54.22
2023-02-14T12:59:48.709Z,44.79
2023-02-14T13:04:53.050Z,40.01
2023-02-14T13:10:08.824Z,40.07
2023-02-14T13:15:36.708Z,39.81
2023-02-14T13:20:50.576Z,37.08
2023-02-14T13:25:59.320Z,37.43
2023-02-14T13:31:01.135Z,37.21
2023-02-14T13:36:12.445Z,37.38
2023-02-14T13:41:15.585Z,37.97
2023-02-14T13:46:21.267Z,38.20
2023-02-14T13:51:44.010Z,39.82
2023-02-14T13:56:45.546Z,41.85
2023-02-14T14:01:47.064Z,42.16
2023-02-14T14:07:03.529Z,43.97
2023-02-14T14:12:27.577Z,44.49
2023-02-14T14:17:29.116Z,45.10
2023-02-14T14:22:30.881Z,44.99
2023-02-14T14:27:35.708Z,45.47
2023-02-14T14:32:38.443Z,45.43
2023-02-14T14:37:48.832Z,45.65
2023-02-14T14:42:50.780Z,46.39
2023-02-14T14:47:55.058Z,46.39
2023-02-14T14:53:02.054Z,46.60
2023-02-14T14:58:25.852Z,47.81
2023-02-14T15:03:28.967Z,48.17
2023-02-14T15:08:31.418Z,47.67
2023-02-14T15:13:51.141Z,47.46
2023-02-14T15:18:57.338Z,47.67
2023-02-14T15:23:59.020Z,47.93
2023-02-14T15:29:04.299Z,47.69
2023-02-14T15:34:06.679Z,48.11
2023-02-14T15:39:10.902Z,48.54
2023-02-14T15:44:24.225Z,49.53
2023-02-14T15:49:33.725Z,50.35
2023-02-14T15:54:47.660Z,50.18
2023-02-14T15:59:49.740Z,50.91
2023-02-14T16:04:51.337Z,51.06
2023-02-14T16:10:23.841Z,50.95
2023-02-14T16:15:28.521Z,52.09
2023-02-14T16:20:36.134Z,52.48
2023-02-14T16:25:37.790Z,52.56
2023-02-14T16:30:40.738Z,54.32
2023-02-14T16:35:42.335Z,54.67
2023-02-14T16:40:46.739Z,53.93
2023-02-14T16:45:48.250Z,55.25
2023-02-14T16:50:49.756Z,55.31
2023-02-14T16:55:53.835Z,54.84
2023-02-14T17:00:55.351Z,56.46
2023-02-14T17:05:58.267Z,56.36
2023-02-14T17:11:00.427Z,57.11
2023-02-14T17:16:04.645Z,56.75
2023-02-14T17:21:06.131Z,57.00
2023-02-14T17:26:07.575Z,57.89
2023-02-14T17:31:09.178Z,58.38
2023-02-14T17:36:12.756Z,59.14
2023-02-14T17:41:17.022Z,59.30
2023-02-14T17:46:19.294Z,60.77
2023-02-14T17:51:21.239Z,61.46
2023-02-14T17:56:25.597Z,61.83
2023-02-14T18:01:29.681Z,59.36
2023-02-14T18:06:31.708Z,59.91
2023-02-14T18:11:33.270Z,61.17
2023-02-14T18:16:37.838Z,61.39
2023-02-14T18:21:39.284Z,61.38
2023-02-14T18:26:41.557Z,62.36
2023-02-14T18:31:44.647Z,62.32
2023-02-14T18:36:46.250Z,62.79
2023-02-14T18:41:47.745Z,62.82
2023-02-14T18:46:49.240Z,63.49
2023-02-14T18:51:50.745Z,63.34
2023-02-14T18:56:52.236Z,64.08
2023-02-14T19:01:53.707Z,64.21
2023-02-14T19:06:55.147Z,64.34
2023-02-14T19:11:56.665Z,64.62
2023-02-14T19:16:58.157Z,64.95
2023-02-14T19:22:00.439Z,64.25
2023-02-14T19:27:02.123Z,64.92
2023-02-14T19:32:06.132Z,65.07
2023-02-14T19:37:07.722Z,65.00
2023-02-14T19:42:09.243Z,65.20
2023-02-14T19:47:25.608Z,64.89
2023-02-14T19:52:30.526Z,64.66
2023-02-14T19:57:32.033Z,65.68
2023-02-14T20:02:33.561Z,65.46
2023-02-14T20:07:35.071Z,65.35
2023-02-14T20:12:36.994Z,66.21
2023-02-14T20:17:38.664Z,65.26
2023-02-14T20:22:40.898Z,65.96
2023-02-14T20:27:42.350Z,66.90
2023-02-14T20:32:43.776Z,65.83
2023-02-14T20:37:45.226Z,66.22
2023-02-14T20:42:49.273Z,65.54
2023-02-14T20:47:50.737Z,65.81
2023-02-14T20:52:52.262Z,65.55
2023-02-14T20:57:54.428Z,66.20
2023-02-14T21:02:56.930Z,66.64
2023-02-14T21:07:58.420Z,66.57
2023-02-14T21:12:59.945Z,67.59
2023-02-14T21:18:01.422Z,66.38
2023-02-14T21:23:02.867Z,67.28
2023-02-14T21:28:04.395Z,65.98
2023-02-14T21:33:05.905Z,65.83
2023-02-14T21:38:07.404Z,65.28
2023-02-14T21:43:08.847Z,64.85
2023-02-14T21:48:10.279Z,65.15
2023-02-14T21:53:11.708Z,65.28
2023-02-14T21:58:13.225Z,64.40
2023-02-14T22:03:14.747Z,64.58
2023-02-14T22:08:16.310Z,65.53
2023-02-14T22:13:17.838Z,64.15
2023-02-14T22:18:19.374Z,64.05
2023-02-14T22:23:20.831Z,63.89
2023-02-14T22:28:22.503Z,64.54
2023-02-14T22:33:24.058Z,64.41
2023-02-14T22:38:25.931Z,64.31
2023-02-14T22:43:27.388Z,63.58
2023-02-14T22:48:32.748Z,63.79
2023-02-14T22:53:34.614Z,64.25
2023-02-14T22:58:36.070Z,64.84
2023-02-14T23:03:37.582Z,64.98
2023-02-14T23:08:40.817Z,65.08
2023-02-14T23:13:42.832Z,65.13
2023-02-14T23:18:44.335Z,64.77
2023-02-14T23:23:45.871Z,64.32
2023-02-14T23:28:47.416Z,64.32
2023-02-14T23:33:51.872Z,64.15
2023-02-14T23:38:53.354Z,64.23
2023-02-14T23:43:54.816Z,63.78
2023-02-14T23:48:56.317Z,63.23
2023-02-14T23:53:57.907Z,63.90
2023-02-14T23:58:59.351Z,63.93
